createdAt,value
2017-08-28T00:02:09.844Z,40.80
2017-08-28T00:04:37.926Z,40.70
2017-08-28T00:07:06.018Z,41.20
2017-08-28T00:09:34.092Z,42.20
2017-08-28T00:12:02.177Z,42.00
2017-08-28T00:14:30.253Z,42.00
2017-08-28T00:16:58.339Z,41.20
2017-08-28T00:19:26.418Z,41.30
2017-08-28T00:21:54.496Z,41.50
2017-08-28T00:24:22.888Z,41.60
2017-08-28T00:26:50.960Z,42.00
2017-08-28T00:29:19.684Z,42.60
2017-08-28T00:31:47.759Z,43.00
2017-08-28T00:34:15.843Z,43.20
2017-08-28T00:36:43.922Z,41.90
2017-08-28T00:39:12.015Z,42.90
2017-08-28T00:41:40.092Z,43.70
2017-08-28T00:44:08.192Z,43.90
2017-08-28T00:46:36.259Z,44.10
2017-08-28T00:49:04.343Z,44.50
2017-08-28T00:51:32.431Z,44.20
2017-08-28T00:54:00.507Z,44.70
2017-08-28T00:56:28.587Z,44.90
2017-08-28T00:58:56.660Z,45.10
2017-08-28T01:01:24.764Z,45.20
2017-08-28T01:03:52.840Z,44.80
2017-08-28T01:06:20.928Z,44.40
2017-08-28T01:08:48.994Z,44.30
2017-08-28T01:11:17.267Z,44.30
2017-08-28T01:13:45.346Z,44.20
2017-08-28T01:16:13.436Z,44.30
2017-08-28T01:18:41.511Z,44.20
2017-08-28T01:21:09.593Z,43.90
2017-08-28T01:23:37.687Z,43.90
2017-08-28T01:26:05.771Z,43.90
2017-08-28T01:28:33.860Z,44.00
2017-08-28T01:31:01.926Z,44.10
2017-08-28T01:33:30.018Z,44.20
2017-08-28T01:35:58.088Z,44.10
2017-08-28T01:38:26.167Z,44.00
2017-08-28T01:40:54.243Z,43.80
2017-08-28T01:43:22.327Z,43.60
2017-08-28T01:45:50.425Z,43.30
2017-08-28T01:48:18.512Z,43.50
2017-08-28T01:50:46.591Z,43.10
2017-08-28T01:53:14.680Z,43.90
2017-08-28T01:55:42.746Z,44.00
2017-08-28T01:58:10.824Z,43.90
2017-08-28T02:00:38.912Z,44.00
2017-08-28T02:03:06.989Z,43.90
2017-08-28T02:05:35.089Z,44.30
2017-08-28T02:08:03.197Z,44.30
2017-08-28T02:10:31.280Z,44.40
2017-08-28T02:12:59.371Z,44.60
2017-08-28T02:15:27.597Z,44.80
2017-08-28T02:17:55.679Z,44.60
2017-08-28T02:20:23.759Z,44.60
2017-08-28T02:22:51.829Z,44.90
2017-08-28T02:25:19.924Z,44.40
2017-08-28T02:27:48.003Z,44.50
2017-08-28T02:30:16.083Z,44.60
2017-08-28T02:32:44.163Z,44.90
2017-08-28T02:35:12.247Z,45.00
2017-08-28T02:37:40.344Z,44.90
2017-08-28T02:40:08.424Z,44.70
2017-08-28T02:42:36.547Z,45.00
2017-08-28T02:45:04.701Z,46.00
2017-08-28T02:47:32.804Z,45.20
2017-08-28T02:50:00.888Z,45.70
2017-08-28T02:52:28.980Z,46.10
2017-08-28T02:54:57.048Z,46.40
2017-08-28T02:57:25.136Z,46.60
2017-08-28T02:59:53.237Z,47.90
2017-08-28T03:02:21.335Z,47.00
2017-08-28T03:04:49.413Z,46.80
2017-08-28T03:07:17.509Z,46.70
2017-08-28T03:09:45.596Z,46.40
2017-08-28T03:12:13.679Z,46.30
2017-08-28T03:14:41.765Z,46.20
2017-08-28T03:17:09.861Z,46.60
2017-08-28T03:19:37.919Z,47.40
2017-08-28T03:22:06.024Z,47.10
2017-08-28T03:24:34.095Z,47.30
2017-08-28T03:27:02.166Z,46.80
2017-08-28T03:29:30.296Z,46.00
2017-08-28T03:31:58.366Z,45.50
2017-08-28T03:34:26.500Z,45.40
2017-08-28T03:36:54.584Z,45.90
2017-08-28T03:39:22.672Z,46.20
2017-08-28T03:41:50.752Z,46.00
2017-08-28T03:44:18.838Z,45.80
2017-08-28T03:46:46.915Z,46.30
2017-08-28T03:49:14.986Z,46.90
2017-08-28T03:51:43.059Z,46.90
2017-08-28T03:54:11.139Z,46.80
2017-08-28T03:56:39.223Z,46.80
2017-08-28T03:59:07.304Z,46.80
2017-08-28T04:01:35.495Z,46.70
2017-08-28T04:04:03.568Z,47.20
2017-08-28T04:06:31.659Z,47.40
2017-08-28T04:08:59.740Z,47.30
2017-08-28T04:11:27.820Z,47.50
2017-08-28T04:13:55.912Z,47.70
2017-08-28T04:16:24.011Z,47.80
2017-08-28T04:18:52.091Z,48.30
2017-08-28T04:21:20.180Z,48.00
2017-08-28T04:23:48.248Z,47.80
2017-08-28T04:26:16.336Z,48.00
2017-08-28T04:28:44.424Z,47.60
2017-08-28T04:31:12.497Z,47.50
2017-08-28T04:33:40.571Z,47.50
2017-08-28T04:36:08.644Z,47.50
2017-08-28T04:38:36.732Z,47.70
2017-08-28T04:41:04.811Z,47.70
2017-08-28T04:43:32.897Z,47.70
2017-08-28T04:46:00.999Z,47.50
2017-08-28T04:48:29.070Z,47.40
2017-08-28T04:50:57.143Z,47.40
2017-08-28T04:53:25.236Z,47.60
2017-08-28T04:55:53.312Z,47.70
2017-08-28T04:58:21.392Z,47.50
2017-08-28T05:00:49.532Z,47.30
2017-08-28T05:03:17.623Z,47.10
2017-08-28T05:05:45.700Z,47.40
2017-08-28T05:08:13.779Z,47.80
2017-08-28T05:10:41.861Z,48.00
2017-08-28T05:13:09.935Z,47.80
2017-08-28T05:15:38.011Z,48.50
2017-08-28T05:18:06.085Z,48.30
2017-08-28T05:20:34.196Z,48.40
2017-08-28T05:23:02.267Z,48.20
2017-08-28T05:25:30.352Z,48.00
2017-08-28T05:27:58.419Z,47.50
2017-08-28T05:30:26.511Z,47.50
2017-08-28T05:32:54.580Z,47.50
2017-08-28T05:35:22.664Z,47.30
2017-08-28T05:37:50.735Z,47.10
2017-08-28T05:40:18.840Z,46.70
2017-08-28T05:42:46.919Z,46.40
2017-08-28T05:45:15.023Z,46.50
2017-08-28T05:47:43.090Z,46.50
2017-08-28T05:50:11.159Z,46.50
2017-08-28T05:52:39.339Z,46.50
2017-08-28T05:55:07.420Z,46.60
2017-08-28T05:57:35.499Z,45.80
2017-08-28T06:00:03.603Z,45.50
2017-08-28T06:02:31.747Z,45.20
2017-08-28T06:04:59.825Z,44.90
2017-08-28T06:07:27.925Z,45.70
2017-08-28T06:09:55.995Z,45.00
2017-08-28T06:12:24.088Z,41.80
2017-08-28T06:14:52.156Z,36.90
2017-08-28T06:17:20.299Z,39.40
2017-08-28T06:19:48.445Z,41.40
2017-08-28T06:22:16.543Z,42.00
2017-08-28T06:24:44.644Z,42.30
2017-08-28T06:27:12.741Z,42.50
2017-08-28T06:29:40.837Z,42.70
2017-08-28T06:32:08.925Z,42.00
2017-08-28T06:34:37.052Z,41.80
2017-08-28T06:37:05.175Z,41.60
2017-08-28T06:39:33.285Z,41.50
2017-08-28T06:42:01.369Z,41.30
2017-08-28T06:44:29.461Z,41.20
2017-08-28T06:46:57.540Z,40.90
2017-08-28T06:49:25.628Z,40.60
2017-08-28T06:51:53.714Z,40.70
2017-08-28T06:54:21.819Z,40.90
2017-08-28T06:56:49.936Z,40.70
2017-08-28T06:59:18.005Z,40.30
2017-08-28T07:01:46.078Z,40.80
2017-08-28T07:04:14.222Z,41.00
2017-08-28T07:06:42.303Z,40.60
2017-08-28T07:09:10.371Z,40.80
2017-08-28T07:11:38.452Z,40.80
2017-08-28T07:14:06.520Z,40.50
2017-08-28T07:16:34.611Z,39.60
2017-08-28T07:19:02.690Z,39.30
2017-08-28T07:21:30.759Z,39.10
2017-08-28T07:23:58.840Z,39.50
2017-08-28T07:26:26.912Z,39.20
2017-08-28T07:28:54.995Z,38.20
2017-08-28T07:31:23.068Z,38.60
2017-08-28T07:33:51.240Z,38.40
2017-08-28T07:36:19.315Z,38.10
2017-08-28T07:38:47.404Z,38.40
2017-08-28T07:41:15.475Z,38.30
2017-08-28T07:43:43.547Z,38.00
2017-08-28T07:46:11.644Z,37.60
2017-08-28T07:48:39.718Z,37.70
2017-08-28T07:51:07.800Z,38.70
2017-08-28T07:53:35.868Z,37.40
2017-08-28T07:56:03.956Z,36.90
2017-08-28T07:58:32.052Z,37.30
2017-08-28T08:01:00.123Z,36.90
2017-08-28T08:03:28.200Z,37.30
2017-08-28T08:05:57.361Z,36.90
2017-08-28T08:08:25.466Z,37.30
2017-08-28T08:10:53.555Z,37.00
2017-08-28T08:13:21.745Z,36.80
2017-08-28T08:15:49.820Z,36.80
2017-08-28T08:18:17.899Z,36.70
2017-08-28T08:20:45.979Z,37.30
2017-08-28T08:23:14.063Z,36.50
2017-08-28T08:25:42.136Z,36.80
2017-08-28T08:28:10.219Z,36.20
2017-08-28T08:30:38.283Z,36.20
2017-08-28T08:33:06.359Z,35.70
2017-08-28T08:35:34.427Z,36.40
2017-08-28T08:38:02.518Z,36.40
2017-08-28T08:40:30.580Z,36.10
2017-08-28T08:42:58.675Z,35.80
2017-08-28T08:45:26.796Z,35.80
2017-08-28T08:47:54.905Z,35.80
2017-08-28T08:50:23.024Z,35.60
2017-08-28T08:52:51.119Z,35.10
2017-08-28T08:55:19.234Z,34.70
2017-08-28T08:57:47.349Z,35.30
2017-08-28T09:00:15.491Z,35.70
2017-08-28T09:02:43.575Z,35.70
2017-08-28T09:05:12.460Z,35.80
2017-08-28T09:07:40.556Z,35.50
2017-08-28T09:10:08.652Z,35.40
2017-08-28T09:12:36.743Z,34.40
2017-08-28T09:15:04.845Z,35.60
2017-08-28T09:17:32.975Z,34.40
2017-08-28T09:20:01.088Z,34.10
2017-08-28T09:22:29.191Z,34.80
2017-08-28T09:24:57.368Z,34.60
2017-08-28T09:27:25.518Z,34.50
2017-08-28T09:29:53.617Z,34.40
2017-08-28T09:32:21.733Z,34.10
2017-08-28T09:34:51.868Z,32.80
2017-08-28T09:37:19.999Z,32.90
2017-08-28T09:39:48.098Z,32.90
2017-08-28T09:42:16.204Z,32.90
2017-08-28T09:44:44.400Z,31.90
2017-08-28T09:47:12.514Z,30.00
2017-08-28T09:49:40.685Z,29.50
2017-08-28T09:52:08.878Z,29.60
2017-08-28T09:54:36.997Z,30.00
2017-08-28T09:57:05.096Z,27.00
2017-08-28T09:59:33.234Z,25.20
2017-08-28T10:02:01.371Z,25.30
2017-08-28T10:04:29.510Z,24.30
2017-08-28T10:06:57.613Z,25.20
2017-08-28T10:09:25.742Z,25.30
2017-08-28T10:11:53.885Z,25.80
2017-08-28T10:14:22.057Z,26.10
2017-08-28T10:16:50.208Z,27.00
2017-08-28T10:19:18.397Z,27.20
2017-08-28T10:21:46.528Z,27.00
2017-08-28T10:24:14.630Z,28.60
2017-08-28T10:26:42.221Z,28.80
2017-08-28T10:29:10.356Z,28.50
2017-08-28T10:31:38.520Z,28.50
2017-08-28T10:34:06.640Z,28.10
2017-08-28T10:36:34.757Z,27.40
2017-08-28T10:39:02.880Z,27.10
2017-08-28T10:41:30.998Z,27.60
2017-08-28T10:43:59.133Z,27.30
2017-08-28T10:46:27.258Z,27.30
2017-08-28T10:48:55.385Z,26.80
2017-08-28T10:51:23.498Z,27.00
2017-08-28T10:53:52.320Z,27.00
2017-08-28T10:56:20.449Z,26.40
2017-08-28T10:58:48.632Z,26.00
2017-08-28T11:01:16.733Z,26.10
2017-08-28T11:03:44.914Z,25.80
2017-08-28T11:06:13.107Z,25.80
2017-08-28T11:08:41.249Z,25.80
2017-08-28T11:11:09.412Z,25.90
2017-08-28T11:13:47.781Z,25.60
2017-08-28T11:16:16.677Z,25.20
2017-08-28T11:18:44.836Z,25.40
2017-08-28T11:21:13.057Z,25.60
2017-08-28T11:23:41.192Z,26.40
2017-08-28T11:26:09.275Z,25.80
2017-08-28T11:28:38.137Z,25.30
2017-08-28T11:31:06.238Z,25.20
2017-08-28T11:33:34.324Z,24.60
2017-08-28T11:36:02.415Z,24.70
2017-08-28T11:38:30.506Z,24.50
2017-08-28T11:40:58.597Z,24.50
2017-08-28T11:43:26.708Z,24.80
2017-08-28T11:45:54.803Z,23.80
2017-08-28T11:48:22.895Z,24.40
2017-08-28T11:50:50.988Z,24.10
2017-08-28T11:53:19.091Z,23.70
2017-08-28T11:55:47.203Z,23.60
2017-08-28T11:58:15.296Z,23.60
2017-08-28T12:00:43.409Z,23.10
2017-08-28T12:03:11.500Z,23.10
2017-08-28T12:05:39.835Z,22.60
2017-08-28T12:08:07.945Z,22.50
2017-08-28T12:10:36.041Z,22.50
2017-08-28T12:13:04.172Z,21.90
2017-08-28T12:15:32.302Z,21.90
2017-08-28T12:18:00.382Z,21.70
2017-08-28T12:20:28.488Z,21.50
2017-08-28T12:22:56.567Z,21.30
2017-08-28T12:25:24.667Z,21.60
2017-08-28T12:27:52.752Z,21.70
2017-08-28T12:30:20.850Z,22.20
2017-08-28T12:32:48.936Z,21.80
2017-08-28T12:35:17.034Z,22.10
2017-08-28T12:37:45.167Z,21.70
2017-08-28T12:40:13.287Z,21.00
2017-08-28T12:42:41.372Z,20.70
2017-08-28T12:45:09.460Z,20.30
2017-08-28T12:47:37.580Z,19.60
2017-08-28T12:50:05.676Z,19.50
2017-08-28T12:52:33.783Z,18.70
2017-08-28T12:55:01.865Z,18.30
2017-08-28T12:57:29.968Z,18.80
2017-08-28T12:59:58.060Z,18.40
2017-08-28T13:02:26.157Z,18.10
2017-08-28T13:04:54.248Z,17.70
2017-08-28T13:07:22.349Z,18.50
2017-08-28T13:09:50.425Z,17.90
2017-08-28T13:12:18.537Z,17.90
2017-08-28T13:14:46.626Z,17.10
2017-08-28T13:17:14.703Z,16.70
2017-08-28T13:19:42.825Z,17.10
2017-08-28T13:22:10.913Z,16.60
2017-08-28T13:24:39.011Z,17.40
2017-08-28T13:27:07.101Z,16.60
2017-08-28T13:29:35.196Z,17.40
2017-08-28T13:32:03.269Z,16.50
2017-08-28T13:34:31.360Z,15.80
2017-08-28T13:36:59.458Z,15.60
2017-08-28T13:39:27.564Z,15.30
2017-08-28T13:41:55.654Z,15.00
2017-08-28T13:44:23.751Z,15.00
2017-08-28T13:46:51.841Z,15.10
2017-08-28T13:49:20.030Z,14.30
2017-08-28T13:51:48.132Z,13.60
2017-08-28T13:54:16.275Z,13.90
2017-08-28T13:56:44.389Z,13.00
2017-08-28T13:59:12.476Z,13.40
2017-08-28T14:01:40.582Z,12.80
2017-08-28T14:04:08.698Z,13.00
2017-08-28T14:06:36.810Z,12.90
2017-08-28T14:09:04.921Z,13.80
2017-08-28T14:11:32.989Z,14.30
2017-08-28T14:14:01.085Z,13.40
2017-08-28T14:16:29.172Z,13.70
2017-08-28T14:18:57.260Z,13.50
2017-08-28T14:21:25.336Z,13.60
2017-08-28T14:23:53.436Z,15.20
2017-08-28T14:26:21.528Z,13.00
2017-08-28T14:28:49.657Z,12.80
2017-08-28T14:31:17.733Z,13.30
2017-08-28T14:33:45.830Z,13.60
2017-08-28T14:36:14.009Z,14.40
2017-08-28T14:38:42.112Z,15.20
2017-08-28T14:41:10.217Z,15.20
2017-08-28T14:43:38.300Z,14.90
2017-08-28T14:46:06.428Z,13.00
2017-08-28T14:48:35.138Z,12.80
2017-08-28T14:51:03.224Z,13.00
2017-08-28T14:53:31.313Z,13.30
2017-08-28T14:55:59.449Z,13.80
2017-08-28T14:58:27.529Z,13.00
2017-08-28T15:00:55.675Z,13.40
2017-08-28T15:03:23.764Z,14.70
2017-08-28T15:05:51.850Z,13.00
2017-08-28T15:08:19.957Z,13.80
2017-08-28T15:10:48.054Z,12.60
2017-08-28T15:13:16.156Z,12.90
2017-08-28T15:15:44.236Z,13.00
2017-08-28T15:18:12.327Z,11.90
2017-08-28T15:20:40.430Z,12.10
2017-08-28T15:23:08.519Z,12.40
2017-08-28T15:25:36.613Z,13.00
2017-08-28T15:28:04.764Z,13.60
2017-08-28T15:30:32.858Z,14.00
2017-08-28T15:33:01.002Z,15.20
2017-08-28T15:35:29.093Z,15.20
2017-08-28T15:37:57.275Z,15.20
2017-08-28T15:40:25.364Z,15.50
2017-08-28T15:42:53.515Z,15.50
2017-08-28T15:45:21.670Z,15.40
2017-08-28T15:47:49.751Z,16.50
2017-08-28T15:50:17.840Z,16.90
2017-08-28T15:52:46.496Z,16.90
2017-08-28T15:57:49.750Z,16.60
2017-08-28T16:00:17.844Z,16.90
2017-08-28T16:02:45.936Z,16.80
2017-08-28T16:05:14.044Z,16.50
2017-08-28T16:07:42.133Z,16.60
2017-08-28T16:10:10.231Z,17.00
2017-08-28T16:12:38.342Z,17.10
2017-08-28T16:15:06.424Z,17.60
2017-08-28T16:17:34.517Z,17.80
2017-08-28T16:20:02.601Z,18.10
2017-08-28T16:22:30.700Z,18.10
2017-08-28T16:24:58.787Z,18.20
2017-08-28T16:27:26.881Z,18.10
2017-08-28T16:29:54.968Z,18.20
2017-08-28T16:32:23.180Z,18.00
2017-08-28T16:34:51.255Z,18.80
2017-08-28T16:37:19.373Z,18.90
2017-08-28T16:39:47.469Z,19.10
2017-08-28T16:42:15.584Z,18.40
2017-08-28T16:44:45.692Z,18.80
2017-08-28T16:47:13.772Z,19.00
2017-08-28T16:49:41.861Z,19.00
2017-08-28T16:52:09.977Z,19.00
2017-08-28T16:54:38.123Z,18.90
2017-08-28T16:57:06.211Z,18.90
2017-08-28T16:59:34.566Z,18.90
2017-08-28T17:02:02.653Z,18.90
2017-08-28T17:04:30.749Z,18.90
2017-08-28T17:06:58.877Z,19.50
2017-08-28T17:09:27.013Z,19.70
2017-08-28T17:11:55.101Z,19.60
2017-08-28T17:14:23.184Z,19.70
2017-08-28T17:16:51.308Z,20.00
2017-08-28T17:19:19.387Z,20.30
2017-08-28T17:21:47.489Z,20.30
2017-08-28T17:24:15.609Z,20.40
2017-08-28T17:26:43.705Z,20.50
2017-08-28T17:29:12.469Z,20.70
2017-08-28T17:31:40.561Z,20.90
2017-08-28T17:34:08.650Z,21.00
2017-08-28T17:36:37.586Z,20.80
2017-08-28T17:39:05.648Z,20.60
2017-08-28T17:41:33.742Z,20.70
2017-08-28T17:44:01.835Z,20.10
2017-08-28T17:46:29.933Z,20.70
2017-08-28T17:48:58.049Z,20.80
2017-08-28T17:51:26.925Z,21.40
2017-08-28T17:53:55.024Z,21.50
2017-08-28T17:56:23.133Z,20.80
2017-08-28T17:58:51.223Z,21.10
2017-08-28T18:01:19.315Z,20.80
2017-08-28T18:03:47.472Z,20.90
2017-08-28T18:06:15.540Z,21.30
2017-08-28T18:08:43.630Z,21.30
2017-08-28T18:11:11.829Z,21.80
2017-08-28T18:13:39.945Z,22.00
2017-08-28T18:16:08.073Z,22.30
2017-08-28T18:18:46.216Z,22.20
2017-08-28T18:21:14.279Z,22.50
2017-08-28T18:23:42.357Z,22.80
2017-08-28T18:26:10.452Z,23.30
2017-08-28T18:28:38.698Z,23.90
2017-08-28T18:31:06.822Z,24.10
2017-08-28T18:33:34.909Z,24.40
2017-08-28T18:36:03.018Z,24.70
2017-08-28T18:38:31.088Z,24.70
2017-08-28T18:40:59.194Z,25.60
2017-08-28T18:43:27.267Z,25.60
2017-08-28T18:45:55.976Z,25.90
2017-08-28T18:48:24.051Z,26.00
2017-08-28T18:50:52.149Z,25.70
2017-08-28T18:53:20.215Z,25.60
2017-08-28T18:55:48.274Z,26.30
2017-08-28T18:58:16.352Z,26.30
2017-08-28T19:00:44.421Z,26.80
2017-08-28T19:03:12.496Z,26.90
2017-08-28T19:05:40.559Z,27.30
2017-08-28T19:08:08.639Z,27.40
2017-08-28T19:10:36.712Z,27.80
2017-08-28T19:13:04.786Z,27.90
2017-08-28T19:15:32.855Z,28.70
2017-08-28T19:18:00.932Z,29.10
2017-08-28T19:20:29.008Z,29.30
2017-08-28T19:22:57.088Z,29.40
2017-08-28T19:25:25.188Z,30.00
2017-08-28T19:27:53.260Z,30.50
2017-08-28T19:30:21.343Z,30.40
2017-08-28T19:32:49.415Z,30.10
2017-08-28T19:35:17.492Z,29.80
2017-08-28T19:37:45.564Z,29.40
2017-08-28T19:40:13.639Z,29.80
2017-08-28T19:42:41.723Z,30.10
2017-08-28T19:45:09.815Z,30.80
2017-08-28T19:47:37.887Z,32.30
2017-08-28T19:50:05.975Z,32.90
2017-08-28T19:52:34.081Z,32.70
2017-08-28T19:55:02.155Z,32.30
2017-08-28T19:57:30.232Z,32.80
2017-08-28T19:59:58.323Z,33.30
2017-08-28T20:02:31.960Z,33.40
2017-08-28T20:05:00.031Z,34.00
2017-08-28T20:07:28.130Z,34.20
2017-08-28T20:09:56.190Z,33.90
2017-08-28T20:12:24.258Z,34.30
2017-08-28T20:14:53.175Z,34.10
2017-08-28T20:17:21.249Z,34.10
2017-08-28T20:19:49.336Z,34.20
2017-08-28T20:22:17.420Z,34.10
2017-08-28T20:24:45.483Z,34.40
2017-08-28T20:27:13.576Z,35.00
2017-08-28T20:29:41.647Z,35.20
2017-08-28T20:32:09.720Z,35.40
2017-08-28T20:34:37.888Z,35.60
2017-08-28T20:37:06.940Z,35.40
2017-08-28T20:39:35.083Z,35.60
2017-08-28T20:42:03.198Z,35.80
2017-08-28T20:44:31.307Z,36.20
2017-08-28T20:46:59.553Z,37.10
2017-08-28T20:49:27.707Z,37.50
2017-08-28T20:51:55.799Z,37.50
2017-08-28T20:54:24.000Z,37.20
2017-08-28T20:56:52.090Z,37.70
2017-08-28T20:59:20.204Z,38.20
2017-08-28T21:01:48.296Z,38.10
2017-08-28T21:04:16.375Z,38.20
2017-08-28T21:06:44.465Z,38.50
2017-08-28T21:09:12.535Z,38.80
2017-08-28T21:11:40.620Z,38.70
2017-08-28T21:14:08.770Z,38.80
2017-08-28T21:16:36.930Z,38.90
2017-08-28T21:19:05.256Z,38.60
2017-08-28T21:21:33.351Z,39.00
2017-08-28T21:24:01.450Z,39.70
2017-08-28T21:26:29.580Z,39.20
2017-08-28T21:28:57.656Z,39.40
2017-08-28T21:31:25.756Z,39.30
2017-08-28T21:33:53.876Z,39.00
2017-08-28T21:36:21.971Z,39.20
2017-08-28T21:38:50.088Z,38.90
2017-08-28T21:41:18.182Z,38.90
2017-08-28T21:43:46.311Z,39.10
2017-08-28T21:46:14.400Z,39.50
2017-08-28T21:48:42.499Z,39.90
2017-08-28T21:51:10.593Z,39.90
2017-08-28T21:53:38.697Z,39.80
2017-08-28T21:56:06.789Z,39.80
2017-08-28T21:58:34.893Z,39.80
2017-08-28T22:01:02.978Z,39.80
2017-08-28T22:03:31.322Z,39.80
2017-08-28T22:05:59.412Z,39.70
2017-08-28T22:08:27.491Z,40.50
2017-08-28T22:10:55.571Z,41.00
2017-08-28T22:13:23.783Z,41.30
2017-08-28T22:15:51.899Z,41.90
2017-08-28T22:18:19.991Z,41.90
2017-08-28T22:20:48.091Z,42.00
2017-08-28T22:23:16.196Z,42.10
2017-08-28T22:25:45.395Z,41.90
2017-08-28T22:28:13.512Z,42.50
2017-08-28T22:30:41.647Z,42.60
2017-08-28T22:33:09.789Z,42.80
2017-08-28T22:35:37.900Z,42.90
2017-08-28T22:38:05.984Z,43.30
2017-08-28T22:40:34.108Z,43.30
2017-08-28T22:43:02.243Z,43.70
2017-08-28T22:45:30.360Z,43.90
2017-08-28T22:47:58.833Z,44.60
2017-08-28T22:50:26.914Z,43.80
2017-08-28T22:52:55.025Z,43.80
2017-08-28T22:55:23.749Z,43.60
2017-08-28T22:57:51.842Z,43.70
2017-08-28T23:00:19.932Z,43.80
2017-08-28T23:02:48.034Z,44.00
2017-08-28T23:05:16.125Z,44.30
2017-08-28T23:07:44.233Z,44.60
2017-08-28T23:10:12.328Z,45.00
2017-08-28T23:12:40.445Z,45.20
2017-08-28T23:15:08.540Z,45.30
2017-08-28T23:17:36.617Z,45.50
2017-08-28T23:20:04.721Z,45.30
2017-08-28T23:22:32.835Z,44.70
2017-08-28T23:25:00.940Z,44.70
2017-08-28T23:27:29.027Z,45.40
2017-08-28T23:29:57.145Z,44.80
2017-08-28T23:32:25.244Z,45.00
2017-08-28T23:34:53.422Z,45.30
2017-08-28T23:37:21.624Z,45.60
2017-08-28T23:39:49.709Z,45.60
2017-08-28T23:42:17.814Z,46.10
2017-08-28T23:44:45.900Z,46.30
2017-08-28T23:47:13.992Z,45.80
2017-08-28T23:49:42.118Z,46.20
2017-08-28T23:52:10.212Z,47.30
2017-08-28T23:54:38.299Z,46.50
2017-08-28T23:57:06.392Z,46.40
2017-08-28T23:59:34.506Z,47.20
